createdAt,value
2017-06-10T00:02:26.640Z,92.50
2017-06-10T00:04:54.754Z,92.70
2017-06-10T00:07:22.910Z,92.70
2017-06-10T00:09:51.006Z,92.60
2017-06-10T00:12:19.116Z,92.50
2017-06-10T00:14:47.235Z,92.30
2017-06-10T00:17:15.326Z,92.10
2017-06-10T00:19:43.465Z,92.10
2017-06-10T00:22:11.567Z,92.20
2017-06-10T00:24:39.684Z,92.20
2017-06-10T00:27:07.786Z,92.20
2017-06-10T00:29:35.928Z,92.30
2017-06-10T00:32:04.022Z,92.10
2017-06-10T00:34:32.155Z,92.20
2017-06-10T00:37:00.265Z,92.40
2017-06-10T00:39:28.402Z,92.00
2017-06-10T00:41:56.543Z,92.30
2017-06-10T00:44:24.699Z,92.40
2017-06-10T00:46:52.805Z,92.50
2017-06-10T00:49:20.886Z,92.70
2017-06-10T00:51:49.720Z,92.90
2017-06-10T00:54:18.766Z,92.90
2017-06-10T00:56:46.882Z,93.00
2017-06-10T00:59:15.035Z,93.20
2017-06-10T01:01:43.122Z,93.30
2017-06-10T01:04:11.290Z,93.20
2017-06-10T01:06:39.383Z,93.40
2017-06-10T01:09:07.511Z,93.40
2017-06-10T01:11:35.610Z,93.50
2017-06-10T01:14:03.731Z,93.40
2017-06-10T01:16:32.395Z,93.40
2017-06-10T01:19:00.555Z,93.50
2017-06-10T01:21:28.804Z,93.90
2017-06-10T01:23:56.950Z,93.80
2017-06-10T01:26:25.054Z,93.90
2017-06-10T01:28:53.202Z,94.10
2017-06-10T01:31:21.303Z,94.30
2017-06-10T01:33:49.479Z,94.50
2017-06-10T01:36:17.601Z,94.60
2017-06-10T01:38:46.476Z,94.60
2017-06-10T01:41:14.573Z,94.80
2017-06-10T01:43:42.699Z,94.80
2017-06-10T01:46:10.792Z,94.70
2017-06-10T01:48:38.944Z,94.60
2017-06-10T01:51:07.190Z,94.50
2017-06-10T01:53:35.341Z,94.30
2017-06-10T01:56:03.474Z,94.20
2017-06-10T01:58:31.630Z,94.40
2017-06-10T02:00:59.832Z,94.40
2017-06-10T02:03:31.462Z,94.50
2017-06-10T02:05:59.582Z,94.60
2017-06-10T02:08:27.678Z,94.60
2017-06-10T02:10:55.824Z,94.70
2017-06-10T02:13:23.922Z,94.70
2017-06-10T02:15:52.084Z,94.90
2017-06-10T02:18:20.337Z,95.00
2017-06-10T02:20:48.535Z,95.20
2017-06-10T02:23:16.655Z,95.30
2017-06-10T02:25:44.819Z,95.30
2017-06-10T02:28:12.909Z,95.40
2017-06-10T02:30:41.019Z,95.30
2017-06-10T02:33:09.134Z,95.40
2017-06-10T02:35:37.307Z,95.50
2017-06-10T02:38:05.482Z,95.60
2017-06-10T02:40:33.621Z,95.90
2017-06-10T02:43:02.719Z,95.80
2017-06-10T02:45:30.913Z,95.70
2017-06-10T02:47:59.026Z,95.70
2017-06-10T02:50:27.136Z,95.70
2017-06-10T02:52:55.280Z,95.70
2017-06-10T02:55:23.407Z,95.70
2017-06-10T02:57:51.511Z,95.80
2017-06-10T03:00:19.635Z,95.70
2017-06-10T03:02:47.731Z,95.70
2017-06-10T03:05:15.888Z,95.70
2017-06-10T03:07:44.055Z,96.00
2017-06-10T03:10:12.205Z,95.90
2017-06-10T03:12:40.307Z,95.70
2017-06-10T03:15:08.417Z,95.60
2017-06-10T03:17:36.548Z,95.40
2017-06-10T03:20:04.658Z,95.70
2017-06-10T03:22:32.799Z,95.40
2017-06-10T03:25:00.907Z,95.70
2017-06-10T03:27:29.040Z,95.70
2017-06-10T03:29:57.139Z,95.90
2017-06-10T03:32:25.482Z,95.70
2017-06-10T03:34:53.596Z,95.60
2017-06-10T03:37:21.737Z,95.20
2017-06-10T03:39:49.852Z,94.90
2017-06-10T03:42:17.971Z,94.70
2017-06-10T03:44:46.096Z,94.20
2017-06-10T03:47:14.202Z,93.40
2017-06-10T03:49:42.310Z,92.70
2017-06-10T03:52:13.454Z,92.30
2017-06-10T03:54:41.586Z,91.80
2017-06-10T03:57:10.402Z,90.80
2017-06-10T03:59:38.511Z,90.30
2017-06-10T04:02:06.633Z,89.30
2017-06-10T04:04:34.731Z,88.00
2017-06-10T04:07:03.278Z,86.20
2017-06-10T04:09:31.374Z,85.50
2017-06-10T04:11:59.499Z,84.00
2017-06-10T04:14:30.985Z,81.80
2017-06-10T04:17:02.623Z,81.10
2017-06-10T04:19:30.738Z,78.50
2017-06-10T04:21:58.871Z,75.70
2017-06-10T04:24:26.994Z,74.30
2017-06-10T04:26:55.192Z,72.40
2017-06-10T04:29:23.291Z,71.10
2017-06-10T04:31:51.415Z,70.50
2017-06-10T04:34:19.532Z,68.50
2017-06-10T04:36:47.622Z,67.40
2017-06-10T04:39:19.492Z,66.40
2017-06-10T04:41:47.585Z,66.40
2017-06-10T04:44:16.630Z,64.30
2017-06-10T04:46:44.734Z,65.00
2017-06-10T04:49:12.911Z,64.60
2017-06-10T04:51:40.982Z,64.30
2017-06-10T04:54:09.139Z,64.60
2017-06-10T04:56:38.021Z,64.90
2017-06-10T04:59:06.218Z,66.10
2017-06-10T05:01:35.523Z,68.70
2017-06-10T05:04:03.646Z,69.70
2017-06-10T05:06:31.794Z,70.60
2017-06-10T05:09:00.859Z,67.40
2017-06-10T05:11:28.922Z,65.00
2017-06-10T05:13:57.066Z,64.40
2017-06-10T05:16:25.215Z,62.30
2017-06-10T05:18:53.335Z,63.10
2017-06-10T05:21:21.432Z,67.30
2017-06-10T05:23:49.546Z,68.80
2017-06-10T05:26:17.684Z,70.90
2017-06-10T05:28:45.790Z,72.10
2017-06-10T05:31:13.910Z,72.20
2017-06-10T05:33:42.051Z,72.70
2017-06-10T05:36:10.155Z,74.10
2017-06-10T05:38:48.936Z,74.50
2017-06-10T05:41:17.098Z,74.60
2017-06-10T05:43:45.253Z,75.80
2017-06-10T05:46:13.356Z,76.80
2017-06-10T05:48:42.453Z,78.30
2017-06-10T05:51:20.840Z,79.00
2017-06-10T05:53:49.894Z,80.10
2017-06-10T05:56:18.020Z,81.10
2017-06-10T05:58:46.141Z,81.90
2017-06-10T06:01:15.258Z,82.50
2017-06-10T06:03:43.439Z,82.70
2017-06-10T06:06:13.483Z,82.60
2017-06-10T06:08:44.557Z,82.10
2017-06-10T06:11:12.720Z,81.50
2017-06-10T06:13:40.856Z,81.70
2017-06-10T06:16:09.022Z,81.00
2017-06-10T06:18:37.368Z,80.30
2017-06-10T06:21:05.741Z,81.60
2017-06-10T06:23:33.923Z,82.20
2017-06-10T06:26:02.108Z,82.40
2017-06-10T06:28:30.250Z,82.50
2017-06-10T06:30:59.423Z,83.10
2017-06-10T06:33:27.612Z,83.00
2017-06-10T06:35:55.765Z,83.60
2017-06-10T06:38:23.915Z,83.90
2017-06-10T06:40:52.054Z,83.00
2017-06-10T06:43:20.296Z,83.50
2017-06-10T06:45:48.427Z,84.00
2017-06-10T06:48:16.654Z,83.20
2017-06-10T06:50:44.867Z,81.80
2017-06-10T06:53:12.963Z,80.60
2017-06-10T06:55:51.961Z,79.20
2017-06-10T06:58:20.163Z,77.80
2017-06-10T07:00:48.290Z,77.00
2017-06-10T07:03:16.410Z,76.30
2017-06-10T07:05:44.501Z,76.20
2017-06-10T07:08:12.614Z,76.10
2017-06-10T07:10:41.898Z,74.80
2017-06-10T07:13:10.003Z,74.30
2017-06-10T07:15:38.106Z,73.50
2017-06-10T07:18:06.204Z,73.40
2017-06-10T07:20:34.303Z,73.50
2017-06-10T07:23:03.122Z,74.10
2017-06-10T07:25:31.215Z,73.80
2017-06-10T07:27:59.311Z,73.80
2017-06-10T07:30:27.405Z,73.50
2017-06-10T07:32:55.513Z,72.60
2017-06-10T07:35:23.668Z,73.30
2017-06-10T07:37:51.756Z,73.20
2017-06-10T07:40:19.870Z,73.10
2017-06-10T07:42:47.963Z,73.00
2017-06-10T07:45:16.070Z,73.20
2017-06-10T07:47:45.918Z,73.80
2017-06-10T07:50:14.035Z,73.60
2017-06-10T07:52:42.171Z,73.50
2017-06-10T07:55:10.255Z,73.20
2017-06-10T07:57:38.373Z,72.60
2017-06-10T08:00:06.486Z,73.00
2017-06-10T08:02:34.600Z,72.50
2017-06-10T08:05:02.701Z,72.00
2017-06-10T08:07:30.848Z,70.60
2017-06-10T08:09:58.938Z,68.40
2017-06-10T08:12:27.042Z,68.10
2017-06-10T08:14:55.134Z,67.00
2017-06-10T08:17:23.246Z,67.30
2017-06-10T08:19:51.345Z,66.30
2017-06-10T08:22:19.441Z,67.80
2017-06-10T08:24:47.578Z,68.50
2017-06-10T08:27:15.686Z,67.40
2017-06-10T08:29:43.784Z,67.10
2017-06-10T08:32:11.913Z,67.30
2017-06-10T08:34:40.006Z,67.60
2017-06-10T08:37:08.154Z,67.50
2017-06-10T08:39:36.238Z,67.60
2017-06-10T08:42:04.334Z,67.50
2017-06-10T08:44:32.454Z,66.50
2017-06-10T08:47:00.546Z,67.10
2017-06-10T08:49:28.640Z,67.10
2017-06-10T08:51:56.742Z,65.80
2017-06-10T08:54:24.838Z,65.00
2017-06-10T08:56:52.977Z,65.40
2017-06-10T08:59:21.086Z,64.20
2017-06-10T09:01:49.212Z,63.60
2017-06-10T09:04:17.307Z,63.00
2017-06-10T09:06:45.435Z,61.90
2017-06-10T09:09:13.551Z,61.40
2017-06-10T09:11:41.859Z,60.70
2017-06-10T09:14:09.967Z,60.50
2017-06-10T09:16:38.066Z,60.20
2017-06-10T09:19:06.208Z,59.60
2017-06-10T09:21:34.311Z,60.60
2017-06-10T09:24:03.313Z,60.50
2017-06-10T09:26:31.415Z,59.60
2017-06-10T09:28:59.551Z,57.00
2017-06-10T09:31:28.498Z,58.70
2017-06-10T09:33:56.623Z,58.10
2017-06-10T09:36:24.750Z,58.20
2017-06-10T09:38:52.854Z,57.40
2017-06-10T09:41:21.250Z,58.10
2017-06-10T09:43:49.506Z,58.60
2017-06-10T09:46:18.266Z,58.50
2017-06-10T09:48:46.375Z,59.40
2017-06-10T09:51:14.492Z,58.50
2017-06-10T09:53:42.576Z,58.10
2017-06-10T09:56:10.704Z,57.20
2017-06-10T09:58:38.919Z,56.70
2017-06-10T10:01:06.992Z,56.70
2017-06-10T10:03:35.093Z,56.70
2017-06-10T10:06:03.211Z,57.10
2017-06-10T10:08:31.290Z,57.40
2017-06-10T10:10:59.421Z,57.40
2017-06-10T10:13:27.579Z,57.80
2017-06-10T10:15:55.746Z,58.10
2017-06-10T10:18:23.867Z,57.60
2017-06-10T10:20:51.990Z,57.50
2017-06-10T10:23:20.100Z,58.10
2017-06-10T10:25:48.199Z,58.00
2017-06-10T10:28:16.339Z,57.50
2017-06-10T10:30:44.459Z,55.00
2017-06-10T10:33:12.559Z,55.20
2017-06-10T10:35:40.650Z,55.50
2017-06-10T10:38:08.756Z,55.90
2017-06-10T10:40:37.834Z,55.80
2017-06-10T10:43:05.950Z,55.50
2017-06-10T10:45:34.046Z,56.10
2017-06-10T10:48:02.226Z,56.60
2017-06-10T10:50:31.296Z,56.50
2017-06-10T10:52:59.385Z,54.10
2017-06-10T10:55:27.503Z,54.90
2017-06-10T10:57:55.623Z,56.00
2017-06-10T11:00:23.827Z,56.60
2017-06-10T11:02:51.928Z,56.30
2017-06-10T11:05:20.031Z,55.50
2017-06-10T11:07:48.158Z,54.50
2017-06-10T11:10:16.300Z,54.40
2017-06-10T11:12:44.446Z,54.20
2017-06-10T11:15:12.553Z,53.70
2017-06-10T11:17:40.654Z,53.80
2017-06-10T11:20:08.785Z,54.00
2017-06-10T11:22:36.899Z,54.60
2017-06-10T11:25:04.990Z,54.40
2017-06-10T11:27:33.098Z,54.60
2017-06-10T11:30:01.190Z,53.80
2017-06-10T11:32:29.334Z,53.40
2017-06-10T11:34:57.465Z,53.10
2017-06-10T11:37:25.682Z,52.50
2017-06-10T11:39:53.787Z,52.30
2017-06-10T11:42:21.872Z,52.00
2017-06-10T11:44:50.017Z,51.70
2017-06-10T11:47:18.142Z,51.30
2017-06-10T11:49:46.254Z,50.80
2017-06-10T11:52:14.347Z,50.20
2017-06-10T11:54:42.449Z,48.80
2017-06-10T11:57:10.563Z,48.90
2017-06-10T11:59:39.459Z,49.20
2017-06-10T12:02:07.585Z,49.60
2017-06-10T12:04:35.699Z,49.90
2017-06-10T12:07:03.819Z,49.80
2017-06-10T12:09:33.823Z,49.80
2017-06-10T12:12:01.906Z,50.30
2017-06-10T12:14:30.042Z,49.90
2017-06-10T12:16:58.155Z,50.30
2017-06-10T12:19:26.287Z,49.70
2017-06-10T12:21:54.500Z,49.10
2017-06-10T12:24:22.675Z,49.20
2017-06-10T12:26:50.898Z,49.30
2017-06-10T12:29:20.260Z,49.20
2017-06-10T12:31:48.363Z,48.90
2017-06-10T12:34:16.463Z,48.70
2017-06-10T12:36:46.968Z,47.90
2017-06-10T12:39:15.046Z,47.80
2017-06-10T12:41:43.141Z,47.20
2017-06-10T12:44:11.232Z,47.00
2017-06-10T12:46:39.362Z,47.00
2017-06-10T12:49:07.465Z,47.20
2017-06-10T12:51:35.569Z,46.60
2017-06-10T12:54:03.680Z,46.20
2017-06-10T12:56:32.476Z,46.50
2017-06-10T12:59:00.603Z,46.90
2017-06-10T13:01:30.672Z,47.50
2017-06-10T13:03:59.830Z,47.90
2017-06-10T13:06:27.979Z,47.10
2017-06-10T13:08:57.085Z,47.90
2017-06-10T13:11:26.727Z,48.80
2017-06-10T13:13:55.498Z,49.00
2017-06-10T13:16:23.635Z,48.60
2017-06-10T13:18:51.748Z,48.60
2017-06-10T13:21:19.911Z,48.60
2017-06-10T13:23:48.030Z,48.30
2017-06-10T13:26:16.157Z,48.70
2017-06-10T13:28:44.339Z,47.50
2017-06-10T13:31:12.467Z,47.70
2017-06-10T13:33:45.391Z,46.40
2017-06-10T13:36:13.525Z,45.60
2017-06-10T13:38:41.686Z,45.40
2017-06-10T13:41:09.780Z,45.30
2017-06-10T13:43:41.689Z,45.10
2017-06-10T13:46:09.914Z,44.80
2017-06-10T13:48:40.080Z,44.00
2017-06-10T13:51:09.233Z,43.80
2017-06-10T13:53:41.143Z,44.00
2017-06-10T13:56:10.244Z,44.20
2017-06-10T13:58:38.384Z,44.70
2017-06-10T14:01:10.832Z,44.40
2017-06-10T14:03:38.967Z,44.20
2017-06-10T14:06:07.523Z,44.50
2017-06-10T14:08:39.372Z,44.60
2017-06-10T14:11:09.203Z,44.90
2017-06-10T14:13:37.316Z,44.50
2017-06-10T14:16:06.648Z,44.70
2017-06-10T14:18:35.674Z,45.60
2017-06-10T14:21:03.828Z,45.10
2017-06-10T14:23:58.538Z,45.10
2017-06-10T14:26:28.330Z,44.70
2017-06-10T14:29:37.820Z,45.00
2017-06-10T14:32:48.068Z,45.10
2017-06-10T14:35:16.184Z,46.00
2017-06-10T14:37:46.611Z,46.70
2017-06-10T14:40:27.060Z,47.30
2017-06-10T14:42:55.213Z,46.60
2017-06-10T14:45:23.359Z,46.70
2017-06-10T14:47:52.264Z,46.10
2017-06-10T14:50:24.575Z,46.60
2017-06-10T14:52:54.541Z,45.90
2017-06-10T14:55:24.106Z,45.70
2017-06-10T14:57:54.406Z,45.60
2017-06-10T15:00:24.643Z,46.00
2017-06-10T15:02:54.651Z,45.90
2017-06-10T15:05:22.793Z,45.60
2017-06-10T15:07:51.406Z,45.70
2017-06-10T15:10:21.189Z,45.60
2017-06-10T15:12:50.156Z,45.70
2017-06-10T15:15:29.850Z,45.60
2017-06-10T15:17:58.047Z,45.60
2017-06-10T15:20:37.540Z,45.30
2017-06-10T15:23:06.601Z,45.60
2017-06-10T15:25:38.013Z,45.50
2017-06-10T15:28:07.031Z,45.70
2017-06-10T15:30:38.051Z,46.40
2017-06-10T15:33:06.777Z,46.20
2017-06-10T15:35:38.240Z,46.10
2017-06-10T15:38:11.329Z,45.30
2017-06-10T15:40:41.641Z,46.20
2017-06-10T15:43:10.785Z,45.60
2017-06-10T15:45:39.114Z,45.40
2017-06-10T15:48:08.548Z,45.10
2017-06-10T15:50:37.886Z,46.30
2017-06-10T15:53:06.926Z,45.70
2017-06-10T15:55:36.213Z,46.10
2017-06-10T15:58:04.572Z,46.80
2017-06-10T16:00:32.756Z,46.60
2017-06-10T16:03:00.929Z,47.50
2017-06-10T16:05:29.033Z,48.00
2017-06-10T16:07:57.337Z,48.40
2017-06-10T16:10:25.565Z,49.10
2017-06-10T16:12:56.998Z,49.70
2017-06-10T16:15:25.526Z,50.10
2017-06-10T16:17:54.060Z,50.90
2017-06-10T16:20:23.527Z,51.20
2017-06-10T16:25:52.893Z,51.50
2017-06-10T16:28:22.882Z,51.30
2017-06-10T16:30:52.336Z,50.90
2017-06-10T16:33:24.743Z,50.50
2017-06-10T16:38:30.020Z,50.30
2017-06-10T16:40:59.904Z,50.00
2017-06-10T16:43:28.969Z,50.20
2017-06-10T16:45:58.814Z,50.40
2017-06-10T16:48:29.602Z,50.20
2017-06-10T16:51:00.604Z,50.20
2017-06-10T16:53:35.237Z,50.60
2017-06-10T16:56:05.208Z,50.80
2017-06-10T16:58:36.462Z,50.70
2017-06-10T17:01:05.200Z,50.70
2017-06-10T17:03:36.623Z,50.70
2017-06-10T17:06:05.875Z,50.60
2017-06-10T17:08:34.817Z,50.90
2017-06-10T17:11:05.504Z,50.80
2017-06-10T17:13:34.799Z,50.80
2017-06-10T17:16:05.500Z,50.80
2017-06-10T17:18:35.071Z,51.10
2017-06-10T17:21:07.988Z,51.40
2017-06-10T17:23:43.151Z,51.00
2017-06-10T17:26:18.182Z,51.10
2017-06-10T17:28:50.204Z,51.10
2017-06-10T17:31:19.635Z,51.20
2017-06-10T17:33:50.376Z,51.40
2017-06-10T17:36:21.909Z,51.70
2017-06-10T17:38:51.411Z,52.70
2017-06-10T17:41:20.579Z,54.40
2017-06-10T17:43:52.944Z,56.10
2017-06-10T17:46:21.159Z,58.00
2017-06-10T17:48:57.257Z,58.80
2017-06-10T17:51:27.601Z,60.00
2017-06-10T17:56:48.518Z,61.80
2017-06-10T17:59:21.097Z,62.30
2017-06-10T18:01:50.183Z,62.40
2017-06-10T18:04:20.353Z,62.60
2017-06-10T18:06:48.618Z,63.00
2017-06-10T18:09:33.050Z,63.40
2017-06-10T18:12:01.892Z,63.20
2017-06-10T18:14:30.081Z,63.60
2017-06-10T18:17:12.826Z,64.50
2017-06-10T18:19:54.259Z,64.40
2017-06-10T18:22:22.391Z,65.00
2017-06-10T18:25:00.753Z,65.10
2017-06-10T18:27:41.898Z,64.80
2017-06-10T18:30:19.586Z,64.70
2017-06-10T18:32:48.813Z,64.70
2017-06-10T18:35:16.922Z,64.80
2017-06-10T18:37:45.205Z,64.60
2017-06-10T18:40:13.386Z,64.40
2017-06-10T18:42:47.967Z,64.40
2017-06-10T18:45:16.114Z,64.60
2017-06-10T18:47:45.271Z,65.00
2017-06-10T18:50:18.280Z,65.60
2017-06-10T18:52:48.388Z,66.50
2017-06-10T18:55:20.708Z,67.80
2017-06-10T18:57:48.822Z,68.60
2017-06-10T19:00:17.532Z,69.20
2017-06-10T19:02:46.836Z,70.00
2017-06-10T19:05:18.122Z,70.50
2017-06-10T19:07:46.269Z,70.80
2017-06-10T19:10:14.444Z,71.10
2017-06-10T19:12:42.639Z,70.60
2017-06-10T19:15:21.072Z,69.20
2017-06-10T19:17:54.799Z,69.80
2017-06-10T19:20:22.934Z,67.70
2017-06-10T19:22:51.404Z,68.30
2017-06-10T19:25:22.066Z,68.50
2017-06-10T19:27:50.338Z,67.70
2017-06-10T19:30:19.290Z,67.50
2017-06-10T19:32:51.549Z,67.80
2017-06-10T19:35:19.772Z,67.60
2017-06-10T19:37:49.715Z,67.80
2017-06-10T19:40:17.857Z,68.00
2017-06-10T19:45:32.499Z,67.20
2017-06-10T19:48:13.949Z,67.30
2017-06-10T19:50:43.952Z,66.40
2017-06-10T19:53:17.451Z,66.10
2017-06-10T19:55:48.035Z,66.10
2017-06-10T19:58:16.846Z,65.90
2017-06-10T20:00:45.186Z,66.00
2017-06-10T20:03:24.328Z,66.20
2017-06-10T20:05:52.402Z,66.50
2017-06-10T20:08:21.589Z,66.60
2017-06-10T20:10:49.711Z,66.70
2017-06-10T20:13:22.142Z,67.20
2017-06-10T20:15:50.503Z,67.50
2017-06-10T20:18:19.142Z,66.80
2017-06-10T20:20:50.286Z,67.30
2017-06-10T20:23:21.842Z,68.00
2017-06-10T20:26:19.299Z,68.70
2017-06-10T20:28:50.592Z,69.50
2017-06-10T20:31:21.877Z,70.70
2017-06-10T20:33:52.249Z,71.20
2017-06-10T20:36:21.116Z,71.10
2017-06-10T20:38:50.579Z,71.40
2017-06-10T20:41:21.247Z,71.80
2017-06-10T20:43:51.080Z,72.20
2017-06-10T20:46:23.110Z,72.20
2017-06-10T20:48:51.831Z,72.40
2017-06-10T20:51:22.260Z,72.00
2017-06-10T20:54:11.699Z,72.00
2017-06-10T20:57:01.153Z,72.30
2017-06-10T20:59:50.448Z,72.30
2017-06-10T21:02:21.494Z,72.30
2017-06-10T21:04:49.705Z,72.20
2017-06-10T21:07:27.744Z,72.10
2017-06-10T21:12:44.376Z,72.40
2017-06-10T21:15:13.357Z,72.60
2017-06-10T21:17:53.740Z,72.60
2017-06-10T21:20:22.627Z,72.60
2017-06-10T21:22:53.835Z,72.80
2017-06-10T21:25:21.926Z,72.60
2017-06-10T21:27:53.039Z,72.70
2017-06-10T21:30:22.445Z,73.00
2017-06-10T21:32:54.038Z,73.00
2017-06-10T21:35:23.600Z,73.20
2017-06-10T21:37:53.060Z,73.60
2017-06-10T21:40:25.565Z,73.50
2017-06-10T21:42:53.649Z,73.30
2017-06-10T21:45:22.790Z,73.20
2017-06-10T21:47:50.921Z,73.20
2017-06-10T21:50:19.076Z,73.20
2017-06-10T21:52:47.187Z,73.60
2017-06-10T21:55:15.328Z,74.00
2017-06-10T21:57:43.462Z,74.30
2017-06-10T22:00:11.625Z,74.60
2017-06-10T22:02:39.749Z,74.90
2017-06-10T22:05:07.848Z,75.30
2017-06-10T22:07:35.947Z,76.00
2017-06-10T22:10:04.059Z,76.20
2017-06-10T22:12:32.170Z,76.70
2017-06-10T22:18:21.624Z,77.80
2017-06-10T22:20:53.236Z,78.70
2017-06-10T22:23:22.270Z,79.40
2017-06-10T22:25:53.382Z,80.00
2017-06-10T22:28:24.078Z,80.30
2017-06-10T22:30:56.615Z,80.90
2017-06-10T22:33:24.768Z,81.40
2017-06-10T22:35:52.902Z,81.60
2017-06-10T22:38:28.103Z,82.00
2017-06-10T22:41:03.450Z,82.10
2017-06-10T22:43:31.563Z,82.40
2017-06-10T22:45:59.675Z,82.30
2017-06-10T22:48:27.790Z,82.40
2017-06-10T22:50:56.016Z,82.40
2017-06-10T22:53:24.164Z,82.40
2017-06-10T22:55:52.335Z,82.00
2017-06-10T22:58:20.474Z,82.30
2017-06-10T23:00:48.575Z,82.80
2017-06-10T23:03:17.492Z,82.10
2017-06-10T23:05:46.095Z,82.30
2017-06-10T23:08:14.547Z,82.50
2017-06-10T23:10:44.608Z,82.50
2017-06-10T23:13:12.752Z,83.00
2017-06-10T23:15:40.847Z,83.00
2017-06-10T23:18:09.004Z,83.70
2017-06-10T23:20:37.137Z,83.90
2017-06-10T23:23:05.226Z,84.10
2017-06-10T23:25:33.363Z,84.40
2017-06-10T23:28:01.469Z,84.60
2017-06-10T23:30:29.599Z,84.70
2017-06-10T23:32:57.697Z,84.70
2017-06-10T23:35:25.813Z,84.90
2017-06-10T23:37:53.933Z,84.70
2017-06-10T23:40:22.031Z,84.30
2017-06-10T23:42:50.181Z,84.50
2017-06-10T23:45:18.307Z,84.50
2017-06-10T23:47:46.423Z,84.60
2017-06-10T23:50:14.559Z,84.60
2017-06-10T23:52:42.709Z,84.90
2017-06-10T23:55:10.826Z,84.50
2017-06-10T23:57:38.973Z,84.70
